createdAt,value
2022-08-01T00:02:23.581Z,98007.94
2022-08-01T00:07:26.077Z,98008.16
2022-08-01T00:12:28.535Z,98012.38
2022-08-01T00:17:30.919Z,98011.03
2022-08-01T00:22:34.388Z,98011.34
2022-08-01T00:27:37.606Z,98009.00
2022-08-01T00:32:40.429Z,98012.94
2022-08-01T00:37:42.815Z,98022.13
2022-08-01T00:42:45.321Z,98019.88
2022-08-01T00:47:48.004Z,98020.13
2022-08-01T00:53:00.016Z,98020.50
2022-08-01T00:58:05.664Z,98022.78
2022-08-01T01:03:08.971Z,98034.69
2022-08-01T01:08:23.395Z,98025.66
2022-08-01T01:13:31.634Z,98038.31
2022-08-01T01:18:36.805Z,98038.88
2022-08-01T01:23:57.581Z,98046.16
2022-08-01T01:29:05.712Z,98045.44
2022-08-01T01:34:10.410Z,98039.91
2022-08-01T01:39:15.257Z,98049.50
2022-08-01T01:44:18.216Z,98046.94
2022-08-01T01:49:24.980Z,98054.31
2022-08-01T01:54:38.957Z,98050.03
2022-08-01T01:59:42.175Z,98040.19
2022-08-01T02:04:47.712Z,98049.03
2022-08-01T02:09:52.299Z,98046.00
2022-08-01T02:14:57.063Z,98047.53
2022-08-01T02:19:59.841Z,98053.34
2022-08-01T02:25:18.748Z,98055.59
2022-08-01T02:30:22.421Z,98056.31
2022-08-01T02:35:28.616Z,98055.06
2022-08-01T02:40:34.821Z,98062.84
2022-08-01T02:45:42.159Z,98062.66
2022-08-01T02:50:48.227Z,98070.94
2022-08-01T02:55:53.664Z,98066.38
2022-08-01T03:00:56.748Z,98071.31
2022-08-01T03:06:00.566Z,98068.13
2022-08-01T03:11:04.537Z,98068.94
2022-08-01T03:16:08.603Z,98066.41
2022-08-01T03:21:13.039Z,98071.69
2022-08-01T03:26:16.078Z,98079.25
2022-08-01T03:31:19.466Z,98068.22
2022-08-01T03:36:27.729Z,98068.13
2022-08-01T03:41:35.043Z,98076.41
2022-08-01T03:46:51.023Z,98076.47
2022-08-01T03:51:55.668Z,98074.53
2022-08-01T03:56:59.487Z,98079.19
2022-08-01T04:02:02.877Z,98076.59
2022-08-01T04:07:07.729Z,98070.72
2022-08-01T04:12:10.222Z,98076.03
2022-08-01T04:17:15.947Z,98082.81
2022-08-01T04:22:18.986Z,98082.88
2022-08-01T04:27:48.547Z,98088.44
2022-08-01T04:32:55.585Z,98090.88
2022-08-01T04:37:59.396Z,98100.41
2022-08-01T04:43:02.168Z,98096.44
2022-08-01T04:48:07.889Z,98108.88
2022-08-01T04:53:18.673Z,98102.22
2022-08-01T04:58:21.212Z,98087.38
2022-08-01T05:03:23.910Z,98089.63
2022-08-01T05:08:26.579Z,98079.22
2022-08-01T05:13:29.002Z,98081.53
2022-08-01T05:18:31.501Z,98077.03
2022-08-01T05:23:43.276Z,98084.56
2022-08-01T05:28:45.914Z,98085.56
2022-08-01T05:33:48.336Z,98083.81
2022-08-01T05:38:50.843Z,98092.34
2022-08-01T05:43:53.345Z,98096.13
2022-08-01T05:48:55.905Z,98089.31
2022-08-01T05:53:58.585Z,98095.88
2022-08-01T05:59:01.052Z,98109.00
2022-08-01T06:04:03.569Z,98101.19
2022-08-01T06:09:05.999Z,98101.13
2022-08-01T06:14:08.453Z,98099.28
2022-08-01T06:19:10.899Z,98097.69
2022-08-01T06:24:13.406Z,98099.84
2022-08-01T06:29:15.815Z,98107.94
2022-08-01T06:34:18.252Z,98098.84
2022-08-01T06:39:20.777Z,98095.75
2022-08-01T06:44:23.964Z,98098.84
2022-08-01T06:49:26.957Z,98104.97
2022-08-01T06:54:29.404Z,98109.22
2022-08-01T06:59:31.861Z,98097.47
2022-08-01T07:04:34.390Z,98100.72
2022-08-01T07:09:37.834Z,98101.44
2022-08-01T07:14:40.282Z,98103.53
2022-08-01T07:19:42.928Z,98103.00
2022-08-01T07:24:49.522Z,98104.78
2022-08-01T07:29:57.552Z,98105.25
2022-08-01T07:35:00.410Z,98104.66
2022-08-01T07:40:05.439Z,98097.47
2022-08-01T07:45:08.437Z,98092.78
2022-08-01T07:50:11.170Z,98095.47
2022-08-01T07:55:16.494Z,98079.44
2022-08-01T08:00:19.580Z,98095.03
2022-08-01T08:05:57.794Z,98094.72
2022-08-01T08:10:44.853Z,98090.53
2022-08-01T08:15:48.502Z,98093.78
2022-08-01T08:20:51.368Z,98086.25
2022-08-01T08:25:54.146Z,98087.72
2022-08-01T08:30:56.585Z,98082.56
2022-08-01T08:36:01.335Z,98072.75
2022-08-01T08:41:05.618Z,98086.63
2022-08-01T08:46:10.203Z,98081.06
2022-08-01T08:51:13.025Z,98080.81
2022-08-01T08:56:16.343Z,98084.38
2022-08-01T09:01:19.177Z,98082.38
2022-08-01T09:06:26.051Z,98080.53
2022-08-01T09:11:30.296Z,98085.59
2022-08-01T09:16:34.209Z,98087.06
2022-08-01T09:21:36.644Z,98090.56
2022-08-01T09:26:42.776Z,98083.00
2022-08-01T09:31:48.010Z,98096.38
2022-08-01T09:36:56.772Z,98090.81
2022-08-01T09:42:02.114Z,98087.28
2022-08-01T09:47:07.738Z,98089.00
2022-08-01T09:52:16.405Z,98100.31
2022-08-01T09:57:20.823Z,98092.44
2022-08-01T10:02:36.497Z,98093.09
2022-08-01T10:08:01.434Z,98096.72
2022-08-01T10:13:04.994Z,98081.47
2022-08-01T10:18:16.726Z,98083.91
2022-08-01T10:23:40.690Z,98079.19
2022-08-01T10:28:45.953Z,98078.09
2022-08-01T10:33:50.794Z,98061.84
2022-08-01T10:38:56.671Z,98067.22
2022-08-01T10:43:59.931Z,98062.94
2022-08-01T10:49:12.270Z,98065.28
2022-08-01T10:54:15.519Z,98056.63
2022-08-01T10:59:49.225Z,98055.78
2022-08-01T11:04:56.688Z,98042.50
2022-08-01T11:10:16.819Z,98042.91
2022-08-01T11:15:31.263Z,98033.41
2022-08-01T11:20:41.925Z,98039.06
2022-08-01T11:26:04.694Z,98028.66
2022-08-01T11:31:10.912Z,98026.94
2022-08-01T11:36:15.501Z,98013.63
2022-08-01T11:41:37.398Z,98003.41
2022-08-01T11:47:10.048Z,98010.22
2022-08-01T11:52:19.030Z,97999.97
2022-08-01T11:57:34.622Z,98004.34
2022-08-01T12:02:38.545Z,97998.31
2022-08-01T12:07:43.228Z,97983.34
2022-08-01T12:12:57.320Z,97975.19
2022-08-01T12:18:02.620Z,97970.19
2022-08-01T12:23:10.227Z,97966.31
2022-08-01T12:28:16.282Z,97972.03
2022-08-01T12:33:21.390Z,97979.66
2022-08-01T12:38:25.993Z,97980.97
2022-08-01T12:43:32.338Z,97969.00
2022-08-01T12:48:34.860Z,97971.31
2022-08-01T12:53:40.491Z,97960.63
2022-08-01T12:58:43.811Z,97959.84
2022-08-01T13:04:05.228Z,97964.38
2022-08-01T13:09:10.081Z,97959.16
2022-08-01T13:14:28.052Z,97954.78
2022-08-01T13:19:48.163Z,97955.47
2022-08-01T13:24:50.687Z,97946.75
2022-08-01T13:29:56.658Z,97952.16
2022-08-01T13:35:13.464Z,97961.47
2022-08-01T13:40:26.314Z,97947.06
2022-08-01T13:45:28.909Z,97940.59
2022-08-01T13:50:32.848Z,97936.28
2022-08-01T13:55:35.740Z,97946.59
2022-08-01T14:00:38.273Z,97944.03
2022-08-01T14:05:40.912Z,97946.22
2022-08-01T14:10:43.332Z,97937.06
2022-08-01T14:15:46.298Z,97944.91
2022-08-01T14:20:48.918Z,97935.91
2022-08-01T14:26:02.624Z,97922.31
2022-08-01T14:31:09.030Z,97916.25
2022-08-01T14:36:29.969Z,97926.97
2022-08-01T14:41:33.452Z,97923.91
2022-08-01T14:46:36.023Z,97920.81
2022-08-01T14:51:39.275Z,97927.34
2022-08-01T14:56:41.735Z,97926.69
2022-08-01T15:01:44.144Z,97929.00
2022-08-01T15:06:46.632Z,97931.22
2022-08-01T15:11:49.046Z,97920.09
2022-08-01T15:16:51.633Z,97921.53
2022-08-01T15:21:54.193Z,97928.69
2022-08-01T15:26:56.688Z,97935.59
2022-08-01T15:31:59.547Z,97924.19
2022-08-01T15:37:02.746Z,97937.84
2022-08-01T15:42:19.288Z,97933.16
2022-08-01T15:47:27.615Z,97937.81
2022-08-01T15:52:30.942Z,97930.53
2022-08-01T15:57:34.496Z,97940.44
2022-08-01T16:02:36.959Z,97941.03
2022-08-01T16:07:59.296Z,97945.47
2022-08-01T16:13:06.790Z,97942.50
2022-08-01T16:18:16.015Z,97935.50
2022-08-01T16:23:18.496Z,97930.47
2022-08-01T16:28:21.912Z,97929.81
2022-08-01T16:33:45.653Z,97937.88
2022-08-01T16:38:47.034Z,97940.47
2022-08-01T16:43:54.220Z,97937.44
2022-08-01T16:49:06.731Z,97952.97
2022-08-01T16:54:25.625Z,97942.72
2022-08-01T16:59:28.704Z,97948.59
2022-08-01T17:04:31.355Z,97952.97
2022-08-01T17:09:33.896Z,97955.06
2022-08-01T17:14:39.868Z,97964.13
2022-08-01T17:19:42.473Z,97970.44
2022-08-01T17:24:45.236Z,97973.03
2022-08-01T17:29:47.721Z,97974.81
2022-08-01T17:34:50.628Z,97975.41
2022-08-01T17:39:53.139Z,97981.09
2022-08-01T17:44:57.077Z,97979.03
2022-08-01T17:50:02.409Z,97982.16
2022-08-01T17:55:06.114Z,97988.84
2022-08-01T18:00:29.405Z,97997.03
2022-08-01T18:05:36.893Z,97996.19
2022-08-01T18:10:40.226Z,98002.22
2022-08-01T18:15:42.872Z,98011.00
2022-08-01T18:20:45.684Z,98004.16
2022-08-01T18:25:48.164Z,98007.34
2022-08-01T18:30:50.603Z,98012.75
2022-08-01T18:35:53.911Z,98010.81
2022-08-01T18:40:56.943Z,98012.13
2022-08-01T18:46:01.277Z,98014.69
2022-08-01T18:51:03.937Z,98016.19
2022-08-01T18:56:13.630Z,98027.78
2022-08-01T19:01:16.227Z,98040.47
2022-08-01T19:06:18.679Z,98056.81
2022-08-01T19:11:21.430Z,98052.31
2022-08-01T19:16:24.429Z,98048.88
2022-08-01T19:21:27.310Z,98049.91
2022-08-01T19:26:32.526Z,98045.44
2022-08-01T19:31:39.257Z,98057.88
2022-08-01T19:36:43.944Z,98072.69
2022-08-01T19:41:47.891Z,98083.22
2022-08-01T19:46:51.799Z,98081.69
2022-08-01T19:52:01.763Z,98102.06
2022-08-01T19:57:07.051Z,98120.41
2022-08-01T20:02:10.158Z,98128.16
2022-08-01T20:07:14.096Z,98132.16
2022-08-01T20:12:20.649Z,98143.97
2022-08-01T20:17:24.759Z,98155.94
2022-08-01T20:22:31.116Z,98170.97
2022-08-01T20:27:34.242Z,98153.88
2022-08-01T20:32:40.374Z,98147.38
2022-08-01T20:38:05.586Z,98149.88
2022-08-01T20:43:08.924Z,98149.19
2022-08-01T20:48:12.926Z,98137.72
2022-08-01T20:53:15.548Z,98138.59
2022-08-01T20:58:41.158Z,98156.16
2022-08-01T21:03:54.989Z,98161.56
2022-08-01T21:09:02.004Z,98182.78
2022-08-01T21:14:06.328Z,98179.16
2022-08-01T21:19:20.025Z,98186.69
2022-08-01T21:24:26.820Z,98184.19
2022-08-01T21:29:32.674Z,98185.69
2022-08-01T21:34:38.585Z,98192.03
2022-08-01T21:39:43.268Z,98188.50
2022-08-01T21:44:47.328Z,98198.50
2022-08-01T21:49:49.794Z,98196.50
2022-08-01T21:55:04.127Z,98195.03
2022-08-01T22:00:26.075Z,98191.50
2022-08-01T22:05:50.898Z,98184.69
2022-08-01T22:10:58.356Z,98191.25
2022-08-01T22:16:03.173Z,98181.66
2022-08-01T22:21:05.670Z,98184.84
2022-08-01T22:26:10.057Z,98186.13
2022-08-01T22:31:16.246Z,98186.44
2022-08-01T22:36:19.955Z,98194.25
2022-08-01T22:41:31.344Z,98200.47
2022-08-01T22:47:11.943Z,98207.00
2022-08-01T22:52:22.192Z,98196.13
2022-08-01T22:57:30.302Z,98211.59
2022-08-01T23:02:40.561Z,98217.94
2022-08-01T23:08:04.022Z,98212.19
2022-08-01T23:13:07.146Z,98212.34
2022-08-01T23:18:09.996Z,98209.72
2022-08-01T23:23:14.255Z,98202.66
2022-08-01T23:28:17.186Z,98190.38
2022-08-01T23:33:19.621Z,98182.44
2022-08-01T23:38:22.130Z,98178.41
2022-08-01T23:43:24.655Z,98180.66
2022-08-01T23:48:27.609Z,98185.44
2022-08-01T23:53:31.332Z,98182.16
2022-08-01T23:58:33.987Z,98174.31
